createdAt,value
2023-01-13T00:01:26.293Z,80.30
2023-01-13T00:03:54.134Z,78.90
2023-01-13T00:06:26.019Z,78.90
2023-01-13T00:08:55.087Z,78.90
2023-01-13T00:11:23.245Z,79.40
2023-01-13T00:13:52.396Z,80.20
2023-01-13T00:16:21.324Z,80.30
2023-01-13T00:18:49.908Z,79.20
2023-01-13T00:21:20.352Z,77.90
2023-01-13T00:23:47.903Z,77.20
2023-01-13T00:26:18.974Z,77.20
2023-01-13T00:28:47.334Z,76.90
2023-01-13T00:31:18.318Z,76.10
2023-01-13T00:33:46.222Z,75.70
2023-01-13T00:36:15.243Z,75.50
2023-01-13T00:38:43.242Z,76.70
2023-01-13T00:41:17.999Z,75.90
2023-01-13T00:43:45.779Z,76.70
2023-01-13T00:46:16.456Z,76.50
2023-01-13T00:48:43.845Z,76.50
2023-01-13T00:51:15.148Z,77.00
2023-01-13T00:53:45.573Z,79.40
2023-01-13T00:56:24.332Z,80.20
2023-01-13T00:58:58.962Z,79.70
2023-01-13T01:01:27.372Z,77.30
2023-01-13T01:03:55.123Z,78.40
2023-01-13T01:06:25.559Z,79.50
2023-01-13T01:08:55.063Z,78.80
2023-01-13T01:11:25.984Z,78.70
2023-01-13T01:13:55.464Z,78.20
2023-01-13T01:16:24.567Z,77.70
2023-01-13T01:18:53.360Z,76.50
2023-01-13T01:21:22.322Z,76.40
2023-01-13T01:23:51.425Z,75.60
2023-01-13T01:26:22.219Z,75.40
2023-01-13T01:28:49.976Z,75.60
2023-01-13T01:31:22.832Z,78.40
2023-01-13T01:33:51.155Z,80.00
2023-01-13T01:36:20.462Z,79.60
2023-01-13T01:38:48.280Z,79.50
2023-01-13T01:41:19.230Z,78.90
2023-01-13T01:44:03.285Z,77.50
2023-01-13T01:46:39.290Z,76.90
2023-01-13T01:49:18.395Z,75.90
2023-01-13T01:51:58.247Z,75.80
2023-01-13T01:54:53.289Z,75.60
2023-01-13T01:57:26.687Z,74.70
2023-01-13T01:59:54.622Z,74.60
2023-01-13T02:02:22.757Z,77.50
2023-01-13T02:04:54.295Z,78.50
2023-01-13T02:07:25.761Z,78.80
2023-01-13T02:09:56.324Z,78.20
2023-01-13T02:12:32.134Z,79.50
2023-01-13T02:15:11.096Z,79.60
2023-01-13T02:17:55.377Z,78.80
2023-01-13T02:20:51.201Z,78.50
2023-01-13T02:23:57.239Z,77.80
2023-01-13T02:26:47.474Z,76.90
2023-01-13T02:30:30.190Z,76.20
2023-01-13T02:33:31.357Z,77.90
2023-01-13T02:36:06.581Z,80.50
2023-01-13T02:38:38.574Z,80.80
2023-01-13T02:41:40.383Z,80.20
2023-01-13T02:44:11.259Z,78.70
2023-01-13T02:46:59.090Z,78.00
2023-01-13T02:49:37.725Z,76.70
2023-01-13T02:52:28.222Z,77.20
2023-01-13T02:55:01.594Z,77.80
2023-01-13T02:57:33.229Z,77.20
2023-01-13T03:00:01.415Z,76.50
2023-01-13T03:02:28.933Z,75.50
2023-01-13T03:04:58.606Z,78.70
2023-01-13T03:07:43.452Z,81.30
2023-01-13T03:10:30.187Z,81.50
2023-01-13T03:13:16.308Z,80.80
2023-01-13T03:16:12.739Z,78.40
2023-01-13T03:18:55.387Z,78.50
2023-01-13T03:21:53.702Z,80.40
2023-01-13T03:24:35.261Z,81.50
2023-01-13T03:27:07.208Z,80.10
2023-01-13T03:29:40.492Z,80.40
2023-01-13T03:32:08.677Z,79.30
2023-01-13T03:34:46.037Z,77.90
2023-01-13T03:37:16.571Z,77.10
2023-01-13T03:39:50.973Z,77.60
2023-01-13T03:42:22.244Z,78.70
2023-01-13T03:44:55.143Z,79.00
2023-01-13T03:47:32.715Z,80.00
2023-01-13T03:50:12.564Z,80.00
2023-01-13T03:52:47.131Z,79.50
2023-01-13T03:55:20.785Z,78.70
2023-01-13T03:58:28.569Z,79.40
2023-01-13T04:01:30.442Z,80.00
2023-01-13T04:03:59.181Z,79.90
2023-01-13T04:06:42.401Z,78.60
2023-01-13T04:09:18.912Z,78.80
2023-01-13T04:11:53.940Z,79.40
2023-01-13T04:14:25.179Z,80.00
2023-01-13T04:16:56.878Z,81.50
2023-01-13T04:19:25.434Z,83.00
2023-01-13T04:21:53.061Z,82.60
2023-01-13T04:24:20.352Z,82.60
2023-01-13T04:26:47.686Z,81.60
2023-01-13T04:29:16.415Z,81.20
2023-01-13T04:31:44.815Z,81.20
2023-01-13T04:34:13.541Z,80.60
2023-01-13T04:36:40.865Z,80.00
2023-01-13T04:39:08.221Z,80.10
2023-01-13T04:41:53.982Z,78.80
2023-01-13T04:44:21.350Z,79.30
2023-01-13T04:46:48.747Z,80.00
2023-01-13T04:49:16.443Z,80.00
2023-01-13T04:51:44.198Z,80.80
2023-01-13T04:54:11.779Z,81.40
2023-01-13T04:56:40.648Z,83.50
2023-01-13T04:59:10.538Z,84.30
2023-01-13T05:01:38.675Z,83.50
2023-01-13T05:04:15.655Z,84.00
2023-01-13T05:06:43.643Z,84.90
2023-01-13T05:09:13.470Z,84.50
2023-01-13T05:11:59.187Z,84.70
2023-01-13T05:14:45.638Z,84.00
2023-01-13T05:17:23.103Z,82.80
2023-01-13T05:19:50.890Z,80.40
2023-01-13T05:22:36.475Z,82.30
2023-01-13T05:25:22.123Z,83.40
2023-01-13T05:27:53.298Z,83.80
2023-01-13T05:30:28.664Z,84.00
2023-01-13T05:32:57.535Z,83.50
2023-01-13T05:35:25.989Z,82.60
2023-01-13T05:37:55.390Z,80.70
2023-01-13T05:40:41.382Z,80.50
2023-01-13T05:43:21.125Z,81.60
2023-01-13T05:46:08.170Z,83.00
2023-01-13T05:48:40.988Z,82.40
2023-01-13T05:51:10.439Z,83.00
2023-01-13T05:53:38.090Z,83.20
2023-01-13T05:56:07.246Z,82.40
2023-01-13T05:58:35.076Z,80.90
2023-01-13T06:01:05.850Z,81.20
2023-01-13T06:03:36.564Z,81.20
2023-01-13T06:06:05.286Z,81.20
2023-01-13T06:08:32.880Z,81.60
2023-01-13T06:11:00.422Z,81.50
2023-01-13T06:13:28.300Z,81.30
2023-01-13T06:15:59.409Z,81.20
2023-01-13T06:18:27.948Z,80.70
2023-01-13T06:20:57.099Z,80.20
2023-01-13T06:23:26.104Z,79.00
2023-01-13T06:26:17.801Z,78.30
2023-01-13T06:28:45.882Z,78.20
2023-01-13T06:31:14.762Z,78.10
2023-01-13T06:33:58.044Z,78.20
2023-01-13T06:36:39.845Z,78.30
2023-01-13T06:39:09.640Z,79.50
2023-01-13T06:41:55.565Z,81.10
2023-01-13T06:44:24.687Z,81.70
2023-01-13T06:46:52.841Z,82.50
2023-01-13T06:49:21.715Z,83.40
2023-01-13T06:51:49.740Z,85.00
2023-01-13T06:54:17.039Z,87.10
2023-01-13T06:56:45.469Z,88.10
2023-01-13T06:59:13.116Z,88.00
2023-01-13T07:01:41.457Z,88.70
2023-01-13T07:04:08.922Z,88.30
2023-01-13T07:06:36.291Z,86.50
2023-01-13T07:09:05.094Z,85.30
2023-01-13T07:11:33.992Z,85.10
2023-01-13T07:14:22.194Z,84.90
2023-01-13T07:16:49.508Z,84.50
2023-01-13T07:19:23.382Z,80.90
2023-01-13T07:21:52.960Z,82.00
2023-01-13T07:24:21.062Z,81.10
2023-01-13T07:26:50.589Z,81.60
2023-01-13T07:29:18.227Z,81.00
2023-01-13T07:31:48.935Z,81.40
2023-01-13T07:34:17.240Z,81.70
2023-01-13T07:36:44.737Z,81.60
2023-01-13T07:39:12.711Z,81.40
2023-01-13T07:41:58.517Z,83.00
2023-01-13T07:44:34.161Z,83.30
2023-01-13T07:47:03.427Z,82.50
2023-01-13T07:49:32.410Z,81.80
2023-01-13T07:51:59.877Z,81.20
2023-01-13T07:54:40.302Z,81.40
2023-01-13T07:57:08.911Z,80.90
2023-01-13T07:59:36.301Z,81.90
2023-01-13T08:02:03.928Z,81.70
2023-01-13T08:04:31.888Z,81.40
2023-01-13T08:07:00.286Z,79.70
2023-01-13T08:09:28.069Z,81.50
2023-01-13T08:12:15.358Z,81.60
2023-01-13T08:14:44.833Z,80.80
2023-01-13T08:17:15.447Z,81.50
2023-01-13T08:19:44.432Z,81.00
2023-01-13T08:22:11.783Z,78.70
2023-01-13T08:24:39.115Z,77.80
2023-01-13T08:27:06.651Z,77.40
2023-01-13T08:29:34.132Z,75.80
2023-01-13T08:32:01.641Z,76.70
2023-01-13T08:34:28.995Z,75.60
2023-01-13T08:36:57.187Z,74.20
2023-01-13T08:39:26.344Z,74.30
2023-01-13T08:41:58.950Z,73.90
2023-01-13T08:44:30.129Z,75.50
2023-01-13T08:46:57.870Z,77.50
2023-01-13T08:49:26.639Z,77.30
2023-01-13T08:51:54.609Z,78.50
2023-01-13T08:54:22.164Z,78.50
2023-01-13T08:56:50.739Z,78.40
2023-01-13T08:59:20.876Z,77.40
2023-01-13T09:01:48.677Z,77.20
2023-01-13T09:04:23.739Z,75.90
2023-01-13T09:06:52.317Z,75.10
2023-01-13T09:09:19.580Z,72.80
2023-01-13T09:12:09.050Z,70.10
2023-01-13T09:14:38.622Z,68.00
2023-01-13T09:17:07.531Z,68.20
2023-01-13T09:19:35.474Z,68.50
2023-01-13T09:22:03.636Z,69.20
2023-01-13T09:24:31.671Z,67.50
2023-01-13T09:26:59.054Z,64.60
2023-01-13T09:29:26.665Z,64.50
2023-01-13T09:31:54.135Z,64.40
2023-01-13T09:34:41.584Z,65.70
2023-01-13T09:37:09.618Z,65.60
2023-01-13T09:39:38.106Z,61.30
2023-01-13T09:42:41.961Z,55.80
2023-01-13T09:45:13.833Z,51.90
2023-01-13T09:48:03.551Z,54.50
2023-01-13T09:50:40.677Z,55.70
2023-01-13T09:53:18.255Z,57.00
2023-01-13T09:55:46.522Z,52.90
2023-01-13T09:58:23.498Z,46.70
2023-01-13T10:01:28.628Z,44.50
2023-01-13T10:03:55.949Z,42.50
2023-01-13T10:06:39.953Z,43.10
2023-01-13T10:09:14.843Z,45.90
2023-01-13T10:12:04.144Z,46.90
2023-01-13T10:14:39.977Z,48.60
2023-01-13T10:17:28.183Z,49.10
2023-01-13T10:20:03.168Z,47.70
2023-01-13T10:22:52.211Z,47.20
2023-01-13T10:25:33.519Z,44.80
2023-01-13T10:28:12.014Z,43.20
2023-01-13T10:30:46.471Z,42.40
2023-01-13T10:33:21.447Z,42.00
2023-01-13T10:35:59.676Z,44.10
2023-01-13T10:38:38.020Z,46.50
2023-01-13T10:41:28.002Z,46.00
2023-01-13T10:44:13.656Z,46.50
2023-01-13T10:46:59.652Z,47.40
2023-01-13T10:49:36.645Z,46.20
2023-01-13T10:52:25.159Z,44.40
2023-01-13T10:54:54.481Z,46.10
2023-01-13T10:57:25.415Z,48.00
2023-01-13T10:59:54.667Z,47.70
2023-01-13T11:02:31.530Z,44.40
2023-01-13T11:05:14.761Z,40.40
2023-01-13T11:07:50.638Z,40.00
2023-01-13T11:10:27.656Z,39.80
2023-01-13T11:13:34.112Z,39.60
2023-01-13T11:16:14.161Z,40.40
2023-01-13T11:19:12.171Z,39.00
2023-01-13T11:21:54.593Z,39.20
2023-01-13T11:24:50.827Z,40.80
2023-01-13T11:27:55.085Z,43.80
2023-01-13T11:30:52.336Z,47.10
2023-01-13T11:33:38.443Z,46.90
2023-01-13T11:36:12.261Z,46.50
2023-01-13T11:39:16.735Z,45.40
2023-01-13T11:42:22.251Z,47.20
2023-01-13T11:45:01.888Z,46.40
2023-01-13T11:47:31.708Z,45.80
2023-01-13T11:50:00.754Z,47.70
2023-01-13T11:53:07.946Z,46.40
2023-01-13T11:55:40.205Z,46.40
2023-01-13T11:58:45.653Z,46.50
2023-01-13T12:01:25.408Z,47.00
2023-01-13T12:03:58.984Z,48.80
2023-01-13T12:06:33.891Z,51.60
2023-01-13T12:09:23.652Z,53.80
2023-01-13T12:12:20.409Z,53.70
2023-01-13T12:15:33.829Z,55.20
2023-01-13T12:18:20.050Z,53.40
2023-01-13T12:20:54.412Z,52.70
2023-01-13T12:23:25.566Z,53.10
2023-01-13T12:26:00.577Z,53.40
2023-01-13T12:28:55.694Z,52.70
2023-01-13T12:31:27.612Z,52.20
2023-01-13T12:34:05.527Z,53.50
2023-01-13T12:36:53.661Z,53.70
2023-01-13T12:39:46.063Z,53.60
2023-01-13T12:42:51.394Z,54.60
2023-01-13T12:45:29.219Z,55.20
2023-01-13T12:48:00.830Z,54.60
2023-01-13T12:50:28.363Z,54.60
2023-01-13T12:52:58.270Z,55.40
2023-01-13T12:55:26.608Z,56.50
2023-01-13T12:58:15.594Z,56.90
2023-01-13T13:00:46.910Z,57.10
2023-01-13T13:03:15.808Z,57.70
2023-01-13T13:05:55.684Z,58.00
2023-01-13T13:08:38.053Z,57.40
2023-01-13T13:11:37.657Z,58.40
2023-01-13T13:14:13.833Z,57.80
2023-01-13T13:16:52.180Z,59.20
2023-01-13T13:19:22.624Z,59.20
2023-01-13T13:22:18.155Z,59.10
2023-01-13T13:24:49.314Z,58.70
2023-01-13T13:27:48.856Z,59.00
2023-01-13T13:30:34.587Z,58.40
2023-01-13T13:33:33.872Z,58.40
2023-01-13T13:36:33.421Z,59.30
2023-01-13T13:39:34.789Z,58.90
2023-01-13T13:42:40.998Z,58.60
2023-01-13T13:45:47.993Z,58.70
2023-01-13T13:48:31.761Z,58.60
2023-01-13T13:51:03.627Z,59.30
2023-01-13T13:53:38.234Z,59.60
2023-01-13T13:56:16.827Z,59.40
2023-01-13T13:58:44.414Z,59.90
2023-01-13T14:01:37.208Z,59.90
2023-01-13T14:04:07.658Z,59.40
2023-01-13T14:06:35.613Z,59.80
2023-01-13T14:09:04.476Z,60.70
2023-01-13T14:11:34.290Z,61.10
2023-01-13T14:14:07.264Z,61.50
2023-01-13T14:16:37.672Z,61.10
2023-01-13T14:19:05.180Z,60.80
2023-01-13T14:21:34.357Z,59.80
2023-01-13T14:24:22.695Z,60.20
2023-01-13T14:26:53.542Z,59.80
2023-01-13T14:29:25.099Z,59.10
2023-01-13T14:31:55.315Z,59.00
2023-01-13T14:34:31.751Z,58.50
2023-01-13T14:37:03.054Z,57.40
2023-01-13T14:39:41.045Z,56.50
2023-01-13T14:42:17.512Z,56.60
2023-01-13T14:44:52.461Z,56.40
2023-01-13T14:47:29.942Z,56.00
2023-01-13T14:50:14.412Z,55.60
2023-01-13T14:52:51.277Z,55.20
2023-01-13T14:55:37.535Z,55.40
2023-01-13T14:58:38.195Z,56.70
2023-01-13T15:01:29.134Z,57.50
2023-01-13T15:04:17.741Z,57.90
2023-01-13T15:06:49.556Z,58.00
2023-01-13T15:09:25.383Z,58.80
2023-01-13T15:11:54.492Z,61.90
2023-01-13T15:14:32.478Z,62.30
2023-01-13T15:16:59.870Z,61.90
2023-01-13T15:19:27.778Z,61.30
2023-01-13T15:21:55.636Z,62.50
2023-01-13T15:24:22.905Z,64.00
2023-01-13T15:26:51.355Z,67.60
2023-01-13T15:29:19.241Z,69.70
2023-01-13T15:31:46.943Z,68.70
2023-01-13T15:34:14.510Z,68.60
2023-01-13T15:36:42.889Z,66.20
2023-01-13T15:39:12.535Z,65.60
2023-01-13T15:41:59.127Z,66.10
2023-01-13T15:44:45.441Z,66.20
2023-01-13T15:47:14.703Z,66.50
2023-01-13T15:49:46.231Z,67.00
2023-01-13T15:52:28.252Z,67.90
2023-01-13T15:54:56.101Z,69.00
2023-01-13T15:57:25.018Z,69.60
2023-01-13T15:59:56.037Z,70.00
2023-01-13T16:02:25.471Z,70.90
2023-01-13T16:04:54.711Z,71.40
2023-01-13T16:07:24.618Z,72.10
2023-01-13T16:09:52.659Z,72.30
2023-01-13T16:12:20.014Z,72.20
2023-01-13T16:14:47.412Z,72.00
2023-01-13T16:17:19.176Z,73.50
2023-01-13T16:19:51.234Z,73.60
2023-01-13T16:22:18.987Z,74.30
2023-01-13T16:24:46.654Z,73.60
2023-01-13T16:27:16.205Z,74.10
2023-01-13T16:29:46.172Z,75.00
2023-01-13T16:32:14.724Z,75.80
2023-01-13T16:34:42.021Z,74.70
2023-01-13T16:37:38.709Z,73.90
2023-01-13T16:40:07.054Z,73.90
2023-01-13T16:42:35.961Z,73.30
2023-01-13T16:45:08.540Z,74.40
2023-01-13T16:47:37.458Z,72.90
2023-01-13T16:50:07.169Z,73.20
2023-01-13T16:52:35.524Z,72.20
2023-01-13T16:55:10.357Z,73.40
2023-01-13T16:57:39.787Z,73.50
2023-01-13T17:00:07.743Z,73.20
2023-01-13T17:02:35.716Z,74.00
2023-01-13T17:05:03.738Z,73.30
2023-01-13T17:07:41.614Z,73.50
2023-01-13T17:10:20.303Z,73.70
2023-01-13T17:12:47.621Z,73.20
2023-01-13T17:15:18.685Z,73.70
2023-01-13T17:17:49.590Z,73.90
2023-01-13T17:20:18.724Z,73.90
2023-01-13T17:22:49.767Z,74.50
2023-01-13T17:25:22.226Z,75.00
2023-01-13T17:27:50.799Z,75.00
2023-01-13T17:30:20.114Z,76.50
2023-01-13T17:32:47.430Z,78.00
2023-01-13T17:35:19.055Z,78.30
2023-01-13T17:37:47.034Z,78.00
2023-01-13T17:40:15.014Z,76.50
2023-01-13T17:42:42.548Z,76.60
2023-01-13T17:45:12.731Z,75.80
2023-01-13T17:47:40.201Z,76.20
2023-01-13T17:50:08.966Z,75.70
2023-01-13T17:52:36.701Z,76.80
2023-01-13T17:55:11.103Z,77.00
2023-01-13T17:57:38.455Z,77.10
2023-01-13T18:00:08.029Z,77.90
2023-01-13T18:02:39.472Z,77.40
2023-01-13T18:05:07.538Z,77.20
2023-01-13T18:07:35.063Z,76.30
2023-01-13T18:10:02.452Z,75.70
2023-01-13T18:12:30.505Z,76.40
2023-01-13T18:14:58.354Z,76.50
2023-01-13T18:17:26.938Z,76.40
2023-01-13T18:20:13.431Z,76.40
2023-01-13T18:22:59.348Z,75.70
2023-01-13T18:25:45.140Z,77.20
2023-01-13T18:28:14.293Z,77.10
2023-01-13T18:30:44.004Z,77.50
2023-01-13T18:33:12.299Z,78.70
2023-01-13T18:35:40.805Z,79.20
2023-01-13T18:38:08.873Z,78.90
2023-01-13T18:40:36.797Z,78.50
2023-01-13T18:43:04.226Z,78.20
2023-01-13T18:45:40.386Z,77.30
2023-01-13T18:48:14.669Z,77.20
2023-01-13T18:50:42.161Z,79.50
2023-01-13T18:53:16.662Z,79.70
2023-01-13T18:55:44.767Z,78.70
2023-01-13T18:58:12.455Z,78.70
2023-01-13T19:00:45.490Z,78.40
2023-01-13T19:06:36.524Z,80.30
2023-01-13T19:09:39.873Z,80.00
2023-01-13T19:12:27.255Z,79.50
2023-01-13T19:15:12.795Z,78.00
2023-01-13T19:17:56.638Z,79.00
2023-01-13T19:20:27.047Z,79.20
2023-01-13T19:23:00.367Z,79.10
2023-01-13T19:25:41.629Z,80.50
2023-01-13T19:28:18.196Z,82.30
2023-01-13T19:30:54.101Z,81.70
2023-01-13T19:33:25.922Z,81.50
2023-01-13T19:35:57.616Z,81.00
2023-01-13T19:38:30.455Z,80.20
2023-01-13T19:41:34.794Z,78.90
2023-01-13T19:44:28.786Z,79.20
2023-01-13T19:50:01.994Z,80.80
2023-01-13T19:52:38.786Z,79.10
2023-01-13T19:55:16.259Z,80.80
2023-01-13T20:00:38.635Z,81.50
2023-01-13T20:03:23.009Z,80.60
2023-01-13T20:05:55.855Z,78.90
2023-01-13T20:08:31.849Z,81.80
2023-01-13T20:11:21.507Z,82.10
2023-01-13T20:14:03.382Z,81.90
2023-01-13T20:16:39.191Z,80.70
2023-01-13T20:19:15.155Z,80.30
2023-01-13T20:21:50.829Z,80.10
2023-01-13T20:24:27.573Z,78.80
2023-01-13T20:27:10.973Z,79.40
2023-01-13T20:29:41.077Z,81.80
2023-01-13T20:32:10.119Z,81.50
2023-01-13T20:34:42.419Z,82.20
2023-01-13T20:37:21.309Z,81.80
2023-01-13T20:39:51.250Z,81.40
2023-01-13T20:42:53.222Z,81.00
2023-01-13T20:45:23.741Z,81.60
2023-01-13T20:47:51.481Z,81.40
2023-01-13T20:50:35.584Z,82.90
2023-01-13T20:53:32.664Z,83.30
2023-01-13T20:56:08.567Z,82.50
2023-01-13T20:58:41.589Z,81.40
2023-01-13T21:01:14.614Z,80.00
2023-01-13T21:03:49.367Z,82.80
2023-01-13T21:06:20.800Z,84.30
2023-01-13T21:08:49.176Z,85.00
2023-01-13T21:11:41.079Z,83.90
2023-01-13T21:14:51.764Z,82.90
2023-01-13T21:17:49.293Z,81.70
2023-01-13T21:20:23.063Z,81.40
2023-01-13T21:22:53.243Z,80.50
2023-01-13T21:25:28.375Z,82.20
2023-01-13T21:28:07.984Z,82.90
2023-01-13T21:30:41.762Z,82.50
2023-01-13T21:33:17.980Z,82.30
2023-01-13T21:35:47.151Z,81.70
2023-01-13T21:38:20.217Z,80.90
2023-01-13T21:41:09.466Z,80.50
2023-01-13T21:43:56.904Z,80.70
2023-01-13T21:46:43.449Z,82.90
2023-01-13T21:49:12.271Z,83.50
2023-01-13T21:51:39.625Z,83.90
2023-01-13T21:54:07.397Z,83.40
2023-01-13T21:56:36.169Z,83.20
2023-01-13T21:59:05.379Z,83.20
2023-01-13T22:01:32.907Z,83.00
2023-01-13T22:04:12.882Z,82.70
2023-01-13T22:06:40.718Z,81.90
2023-01-13T22:09:08.075Z,80.50
2023-01-13T22:11:36.018Z,81.90
2023-01-13T22:14:07.348Z,82.40
2023-01-13T22:16:43.348Z,82.30
2023-01-13T22:19:11.040Z,82.10
2023-01-13T22:21:39.121Z,81.00
2023-01-13T22:24:06.818Z,81.00
2023-01-13T22:26:34.785Z,81.10
2023-01-13T22:29:03.230Z,81.30
2023-01-13T22:31:32.071Z,80.40
2023-01-13T22:34:00.211Z,82.10
2023-01-13T22:36:27.704Z,85.00
2023-01-13T22:38:56.987Z,86.30
2023-01-13T22:41:24.351Z,86.80
2023-01-13T22:43:52.248Z,87.00
2023-01-13T22:46:19.812Z,86.80
2023-01-13T22:48:48.501Z,85.70
2023-01-13T22:51:18.795Z,84.60
2023-01-13T22:53:47.438Z,85.00
2023-01-13T22:56:23.446Z,85.80
2023-01-13T22:58:58.624Z,86.90
2023-01-13T23:01:28.518Z,86.60
2023-01-13T23:03:57.161Z,86.60
2023-01-13T23:06:26.672Z,85.90
2023-01-13T23:08:54.781Z,85.50
2023-01-13T23:11:26.681Z,85.80
2023-01-13T23:13:59.737Z,85.50
2023-01-13T23:16:29.086Z,85.40
2023-01-13T23:18:57.862Z,84.20
2023-01-13T23:21:28.905Z,84.30
2023-01-13T23:23:58.551Z,84.10
2023-01-13T23:26:26.920Z,84.20
2023-01-13T23:28:58.039Z,83.40
2023-01-13T23:31:26.242Z,82.80
2023-01-13T23:33:53.895Z,83.00
2023-01-13T23:36:24.579Z,82.90
2023-01-13T23:38:53.716Z,82.70
2023-01-13T23:41:25.466Z,83.40
2023-01-13T23:43:58.815Z,83.60
2023-01-13T23:46:27.940Z,83.40
2023-01-13T23:48:56.795Z,83.00
2023-01-13T23:51:26.710Z,82.70
2023-01-13T23:53:55.233Z,82.30
2023-01-13T23:56:25.379Z,82.30
2023-01-13T23:58:53.765Z,82.70
